createdAt,value
2023-03-12T00:00:25.340Z,56.05
2023-03-12T00:03:32.067Z,56.48
2023-03-12T00:06:37.917Z,55.75
2023-03-12T00:09:45.433Z,57.02
2023-03-12T00:12:51.341Z,56.24
2023-03-12T00:16:00.673Z,58.11
2023-03-12T00:19:06.568Z,58.28
2023-03-12T00:22:13.087Z,56.00
2023-03-12T00:25:21.263Z,56.41
2023-03-12T00:28:27.916Z,57.33
2023-03-12T00:31:37.388Z,57.22
2023-03-12T00:34:44.602Z,56.52
2023-03-12T00:37:50.288Z,58.61
2023-03-12T00:40:56.930Z,57.07
2023-03-12T00:44:03.077Z,57.05
2023-03-12T00:47:13.225Z,56.51
2023-03-12T00:50:19.586Z,57.01
2023-03-12T00:53:26.279Z,57.59
2023-03-12T00:56:32.062Z,56.56
2023-03-12T00:59:40.609Z,57.20
2023-03-12T01:02:49.436Z,57.96
2023-03-12T01:05:57.562Z,55.92
2023-03-12T01:09:05.655Z,56.62
2023-03-12T01:12:12.552Z,56.24
2023-03-12T01:15:21.331Z,56.00
2023-03-12T01:18:30.659Z,55.85
2023-03-12T01:21:36.361Z,56.58
2023-03-12T01:24:43.383Z,56.38
2023-03-12T01:27:49.267Z,56.60
2023-03-12T01:30:56.404Z,56.79
2023-03-12T01:34:04.828Z,56.84
2023-03-12T01:37:11.598Z,57.39
2023-03-12T01:40:19.825Z,56.60
2023-03-12T01:43:33.062Z,57.03
2023-03-12T01:46:43.279Z,57.52
2023-03-12T01:50:06.252Z,58.09
2023-03-12T01:53:12.362Z,58.41
2023-03-12T01:56:22.412Z,57.42
2023-03-12T01:59:36.499Z,58.17
2023-03-12T02:02:46.327Z,59.00
2023-03-12T02:06:09.656Z,58.23
2023-03-12T02:09:20.302Z,58.70
2023-03-12T02:12:27.659Z,59.58
2023-03-12T02:15:36.927Z,58.20
2023-03-12T02:18:42.997Z,58.93
2023-03-12T02:21:52.983Z,58.45
2023-03-12T02:25:10.714Z,58.76
2023-03-12T02:28:24.712Z,58.22
2023-03-12T02:31:40.489Z,58.30
2023-03-12T02:34:48.246Z,58.01
2023-03-12T02:37:57.944Z,57.83
2023-03-12T02:41:10.332Z,58.55
2023-03-12T02:44:25.289Z,57.37
2023-03-12T02:47:33.037Z,57.47
2023-03-12T02:50:38.987Z,57.68
2023-03-12T02:53:46.780Z,58.17
2023-03-12T02:56:54.028Z,58.50
2023-03-12T03:00:04.440Z,57.85
2023-03-12T03:03:10.610Z,57.70
2023-03-12T03:06:18.332Z,57.52
2023-03-12T03:09:24.585Z,58.08
2023-03-12T03:12:31.455Z,58.55
2023-03-12T03:15:41.845Z,57.41
2023-03-12T03:18:48.740Z,57.52
2023-03-12T03:21:54.575Z,57.59
2023-03-12T03:25:01.619Z,56.98
2023-03-12T03:28:08.345Z,56.56
2023-03-12T03:31:18.105Z,56.74
2023-03-12T03:34:24.042Z,55.48
2023-03-12T03:37:30.891Z,55.86
2023-03-12T03:40:38.372Z,56.14
2023-03-12T03:43:45.379Z,56.21
2023-03-12T03:46:56.336Z,55.85
2023-03-12T03:50:15.271Z,55.50
2023-03-12T03:53:22.154Z,56.13
2023-03-12T03:56:29.462Z,55.87
2023-03-12T03:59:37.112Z,55.93
2023-03-12T04:02:47.013Z,56.20
2023-03-12T04:05:58.515Z,55.36
2023-03-12T04:09:06.270Z,55.49
2023-03-12T04:12:14.757Z,55.57
2023-03-12T04:15:22.295Z,55.20
2023-03-12T04:18:34.354Z,55.22
2023-03-12T04:21:44.446Z,55.92
2023-03-12T04:24:55.723Z,55.54
2023-03-12T04:28:03.147Z,55.63
2023-03-12T04:31:11.305Z,55.92
2023-03-12T04:34:25.350Z,55.86
2023-03-12T04:37:36.073Z,55.99
2023-03-12T04:40:44.335Z,56.20
2023-03-12T04:43:50.638Z,56.07
2023-03-12T04:46:58.552Z,55.47
2023-03-12T04:50:09.482Z,55.73
2023-03-12T04:53:16.261Z,56.43
2023-03-12T04:56:22.266Z,55.71
2023-03-12T04:59:31.898Z,55.62
2023-03-12T05:02:37.889Z,55.96
2023-03-12T05:05:47.482Z,55.61
2023-03-12T05:08:55.116Z,55.52
2023-03-12T05:12:01.948Z,55.75
2023-03-12T05:15:09.516Z,55.93
2023-03-12T05:18:17.555Z,55.66
2023-03-12T05:21:26.421Z,55.98
2023-03-12T05:24:35.332Z,55.77
2023-03-12T05:27:41.805Z,55.70
2023-03-12T05:30:49.483Z,55.88
2023-03-12T05:33:56.780Z,55.46
2023-03-12T05:37:06.581Z,55.45
2023-03-12T05:40:15.842Z,55.99
2023-03-12T05:43:22.814Z,55.27
2023-03-12T05:46:31.018Z,55.14
2023-03-12T05:49:39.351Z,55.02
2023-03-12T05:52:47.808Z,54.75
2023-03-12T05:55:54.494Z,54.72
2023-03-12T05:59:00.786Z,54.18
2023-03-12T06:02:08.899Z,54.28
2023-03-12T06:05:15.920Z,53.33
2023-03-12T06:08:25.170Z,53.89
2023-03-12T06:11:32.331Z,54.16
2023-03-12T06:14:39.000Z,53.67
2023-03-12T06:17:45.796Z,53.53
2023-03-12T06:20:52.327Z,53.64
2023-03-12T06:24:01.528Z,53.40
2023-03-12T06:27:27.449Z,53.31
2023-03-12T06:30:33.306Z,52.90
2023-03-12T06:33:40.033Z,53.26
2023-03-12T06:36:45.828Z,52.95
2023-03-12T06:39:55.405Z,53.02
2023-03-12T06:43:01.145Z,53.16
2023-03-12T06:46:11.661Z,52.21
2023-03-12T06:49:18.135Z,53.11
2023-03-12T06:52:24.715Z,52.87
2023-03-12T06:55:32.985Z,53.15
2023-03-12T06:58:39.816Z,54.06
2023-03-12T07:01:45.720Z,53.25
2023-03-12T07:04:52.511Z,52.27
2023-03-12T07:07:58.423Z,53.69
2023-03-12T07:11:08.177Z,53.00
2023-03-12T07:14:14.419Z,52.72
2023-03-12T07:17:21.054Z,52.60
2023-03-12T07:20:26.933Z,53.20
2023-03-12T07:23:33.599Z,52.43
2023-03-12T07:26:43.770Z,52.29
2023-03-12T07:29:50.471Z,51.33
2023-03-12T07:32:56.280Z,48.68
2023-03-12T07:36:04.021Z,48.52
2023-03-12T07:39:09.914Z,48.64
2023-03-12T07:42:19.166Z,47.45
2023-03-12T07:45:27.843Z,45.90
2023-03-12T07:48:34.641Z,45.65
2023-03-12T07:51:40.762Z,44.75
2023-03-12T07:54:48.058Z,43.47
2023-03-12T07:57:58.660Z,42.25
2023-03-12T08:01:06.796Z,41.35
2023-03-12T08:04:13.676Z,41.88
2023-03-12T08:07:20.659Z,40.41
2023-03-12T08:10:27.101Z,39.50
2023-03-12T08:13:36.895Z,38.46
2023-03-12T08:16:42.611Z,37.88
2023-03-12T08:19:49.429Z,37.55
2023-03-12T08:22:55.269Z,37.21
2023-03-12T08:26:02.407Z,37.16
2023-03-12T08:29:10.943Z,34.04
2023-03-12T08:32:18.124Z,33.96
2023-03-12T08:35:23.973Z,33.19
2023-03-12T08:38:30.812Z,34.84
2023-03-12T08:41:36.725Z,33.22
2023-03-12T08:44:46.091Z,32.49
2023-03-12T08:47:51.884Z,31.99
2023-03-12T08:50:59.885Z,31.04
2023-03-12T08:54:05.819Z,31.30
2023-03-12T08:57:12.437Z,31.40
2023-03-12T09:00:22.404Z,31.35
2023-03-12T09:03:29.783Z,32.37
2023-03-12T09:06:36.593Z,30.89
2023-03-12T09:09:43.644Z,30.42
2023-03-12T09:12:49.350Z,30.09
2023-03-12T09:16:03.172Z,31.68
2023-03-12T09:19:09.161Z,30.52
2023-03-12T09:22:16.267Z,30.34
2023-03-12T09:25:23.543Z,31.06
2023-03-12T09:28:30.377Z,29.86
2023-03-12T09:31:38.831Z,28.36
2023-03-12T09:34:45.602Z,28.30
2023-03-12T09:37:52.875Z,27.82
2023-03-12T09:40:59.528Z,27.31
2023-03-12T09:44:16.836Z,26.67
2023-03-12T09:47:37.631Z,28.22
2023-03-12T09:50:49.162Z,27.43
2023-03-12T09:54:03.310Z,28.55
2023-03-12T09:57:21.188Z,28.60
2023-03-12T10:00:34.736Z,27.36
2023-03-12T10:04:18.513Z,27.14
2023-03-12T10:07:38.531Z,28.78
2023-03-12T10:10:58.477Z,28.87
2023-03-12T10:14:32.001Z,28.57
2023-03-12T10:18:02.924Z,28.18
2023-03-12T10:21:32.435Z,27.47
2023-03-12T10:25:02.299Z,26.72
2023-03-12T10:28:22.193Z,27.25
2023-03-12T10:31:35.035Z,26.23
2023-03-12T10:34:48.788Z,25.17
2023-03-12T10:38:01.722Z,24.87
2023-03-12T10:41:24.330Z,25.80
2023-03-12T10:44:32.515Z,26.36
2023-03-12T10:47:41.679Z,25.26
2023-03-12T10:51:03.805Z,25.18
2023-03-12T10:54:26.541Z,25.97
2023-03-12T10:57:45.276Z,26.60
2023-03-12T11:01:01.274Z,28.43
2023-03-12T11:04:26.937Z,28.68
2023-03-12T11:07:37.428Z,30.68
2023-03-12T11:10:52.459Z,28.97
2023-03-12T11:14:18.592Z,28.49
2023-03-12T11:17:30.316Z,29.52
2023-03-12T11:20:37.077Z,27.50
2023-03-12T11:23:48.429Z,28.16
2023-03-12T11:27:10.763Z,29.00
2023-03-12T11:30:24.785Z,27.25
2023-03-12T11:33:32.288Z,27.59
2023-03-12T11:36:54.405Z,25.94
2023-03-12T11:40:32.188Z,27.50
2023-03-12T11:44:07.813Z,26.46
2023-03-12T11:47:41.048Z,25.52
2023-03-12T11:51:13.636Z,24.38
2023-03-12T11:54:48.723Z,23.82
2023-03-12T11:58:20.401Z,23.24
2023-03-12T12:01:54.517Z,21.52
2023-03-12T12:05:30.788Z,21.15
2023-03-12T12:09:01.926Z,21.34
2023-03-12T12:12:42.293Z,21.83
2023-03-12T12:16:08.108Z,21.60
2023-03-12T12:19:39.315Z,22.41
2023-03-12T12:23:08.453Z,21.31
2023-03-12T12:26:21.356Z,20.71
2023-03-12T12:29:56.829Z,19.90
2023-03-12T12:33:27.939Z,21.44
2023-03-12T12:36:39.749Z,21.38
2023-03-12T12:39:59.418Z,20.06
2023-03-12T12:43:28.272Z,20.43
2023-03-12T12:46:40.550Z,18.48
2023-03-12T12:49:52.292Z,18.68
2023-03-12T12:53:17.043Z,18.83
2023-03-12T12:56:36.625Z,19.00
2023-03-12T12:59:52.288Z,19.52
2023-03-12T13:03:01.100Z,20.62
2023-03-12T13:06:11.543Z,21.46
2023-03-12T13:09:37.099Z,21.71
2023-03-12T13:12:55.725Z,21.81
2023-03-12T13:16:30.058Z,23.01
2023-03-12T13:19:51.979Z,22.47
2023-03-12T13:23:34.542Z,23.90
2023-03-12T13:27:01.189Z,24.32
2023-03-12T13:30:51.367Z,25.10
2023-03-12T13:34:02.543Z,26.37
2023-03-12T13:37:30.689Z,26.94
2023-03-12T13:41:00.985Z,26.25
2023-03-12T13:44:42.466Z,25.79
2023-03-12T13:47:50.061Z,25.62
2023-03-12T13:51:01.493Z,26.31
2023-03-12T13:54:08.619Z,27.00
2023-03-12T13:57:29.328Z,26.66
2023-03-12T14:00:52.142Z,26.13
2023-03-12T14:04:07.069Z,26.43
2023-03-12T14:08:14.433Z,27.36
2023-03-12T14:11:44.202Z,25.62
2023-03-12T14:15:23.045Z,25.65
2023-03-12T14:18:39.016Z,25.75
2023-03-12T14:21:51.251Z,26.90
2023-03-12T14:25:07.889Z,26.30
2023-03-12T14:28:21.625Z,26.78
2023-03-12T14:31:32.143Z,26.82
2023-03-12T14:34:49.379Z,27.84
2023-03-12T14:38:06.350Z,29.30
2023-03-12T14:41:22.593Z,29.14
2023-03-12T14:44:32.491Z,30.28
2023-03-12T14:47:44.208Z,30.37
2023-03-12T14:50:55.101Z,29.70
2023-03-12T14:54:07.406Z,30.80
2023-03-12T14:57:24.767Z,31.60
2023-03-12T15:00:32.858Z,30.60
2023-03-12T15:03:48.341Z,30.93
2023-03-12T15:07:04.519Z,30.90
2023-03-12T15:10:25.471Z,31.15
2023-03-12T15:13:32.528Z,30.47
2023-03-12T15:16:40.071Z,30.53
2023-03-12T15:19:46.998Z,30.20
2023-03-12T15:22:57.404Z,30.57
2023-03-12T15:26:15.978Z,31.10
2023-03-12T15:29:30.423Z,31.51
2023-03-12T15:32:36.545Z,32.12
2023-03-12T15:36:00.339Z,32.05
2023-03-12T15:39:29.870Z,32.39
2023-03-12T15:42:46.577Z,32.29
2023-03-12T15:46:03.087Z,32.16
2023-03-12T15:49:24.231Z,32.55
2023-03-12T15:52:35.665Z,33.17
2023-03-12T15:55:45.344Z,33.15
2023-03-12T15:59:05.709Z,34.15
2023-03-12T16:02:15.325Z,34.31
2023-03-12T16:05:23.244Z,34.51
2023-03-12T16:08:39.580Z,34.21
2023-03-12T16:11:48.404Z,34.35
2023-03-12T16:14:56.015Z,34.44
2023-03-12T16:18:02.979Z,33.75
2023-03-12T16:21:09.924Z,33.95
2023-03-12T16:24:17.330Z,34.21
2023-03-12T16:27:32.493Z,34.10
2023-03-12T16:30:40.539Z,33.69
2023-03-12T16:33:47.671Z,34.15
2023-03-12T16:36:54.295Z,34.17
2023-03-12T16:40:01.657Z,33.86
2023-03-12T16:43:21.506Z,34.29
2023-03-12T16:46:33.863Z,34.57
2023-03-12T16:49:39.789Z,35.32
2023-03-12T16:52:51.275Z,34.95
2023-03-12T16:56:01.104Z,34.91
2023-03-12T16:59:26.112Z,34.74
2023-03-12T17:02:32.554Z,35.27
2023-03-12T17:05:39.214Z,35.71
2023-03-12T17:08:46.161Z,36.37
2023-03-12T17:11:55.626Z,36.56
2023-03-12T17:15:07.801Z,36.82
2023-03-12T17:18:15.454Z,37.15
2023-03-12T17:21:22.968Z,37.42
2023-03-12T17:24:29.695Z,38.33
2023-03-12T17:27:35.696Z,37.91
2023-03-12T17:30:47.536Z,38.60
2023-03-12T17:33:53.574Z,38.79
2023-03-12T17:37:00.239Z,38.08
2023-03-12T17:40:08.328Z,38.33
2023-03-12T17:43:15.309Z,38.66
2023-03-12T17:46:24.069Z,39.17
2023-03-12T17:49:32.384Z,39.74
2023-03-12T17:52:38.340Z,37.97
2023-03-12T17:55:45.766Z,38.38
2023-03-12T17:58:51.871Z,38.26
2023-03-12T18:02:01.091Z,38.05
2023-03-12T18:05:07.549Z,38.61
2023-03-12T18:08:15.317Z,38.26
2023-03-12T18:11:21.105Z,38.25
2023-03-12T18:14:28.067Z,38.10
2023-03-12T18:17:36.569Z,38.16
2023-03-12T18:20:43.424Z,37.93
2023-03-12T18:23:49.138Z,38.28
2023-03-12T18:26:55.732Z,37.72
2023-03-12T18:30:01.490Z,38.06
2023-03-12T18:33:10.743Z,37.77
2023-03-12T18:36:16.706Z,37.26
2023-03-12T18:39:23.737Z,37.32
2023-03-12T18:42:29.956Z,37.59
2023-03-12T18:45:36.543Z,37.33
2023-03-12T18:48:44.912Z,36.73
2023-03-12T18:51:53.617Z,37.68
2023-03-12T18:54:59.480Z,38.25
2023-03-12T18:58:06.111Z,38.22
2023-03-12T19:01:14.025Z,37.86
2023-03-12T19:04:26.040Z,38.48
2023-03-12T19:07:32.022Z,37.87
2023-03-12T19:10:38.775Z,37.79
2023-03-12T19:13:49.664Z,38.62
2023-03-12T19:16:56.459Z,38.02
2023-03-12T19:20:06.153Z,38.15
2023-03-12T19:23:12.870Z,38.97
2023-03-12T19:26:18.616Z,38.88
2023-03-12T19:29:25.386Z,38.68
2023-03-12T19:32:42.559Z,38.16
2023-03-12T19:35:54.591Z,38.07
2023-03-12T19:39:02.364Z,37.88
2023-03-12T19:42:11.384Z,38.96
2023-03-12T19:45:17.144Z,38.20
2023-03-12T19:48:25.378Z,37.62
2023-03-12T19:51:34.370Z,37.23
2023-03-12T19:54:44.064Z,38.01
2023-03-12T19:57:51.162Z,38.06
2023-03-12T20:01:00.430Z,37.41
2023-03-12T20:04:08.538Z,38.08
2023-03-12T20:07:18.729Z,37.44
2023-03-12T20:10:26.009Z,37.23
2023-03-12T20:13:32.877Z,37.86
2023-03-12T20:16:39.096Z,38.04
2023-03-12T20:19:45.846Z,37.32
2023-03-12T20:22:57.338Z,37.54
2023-03-12T20:26:04.109Z,37.12
2023-03-12T20:29:10.122Z,38.11
2023-03-12T20:32:16.866Z,37.59
2023-03-12T20:35:22.698Z,37.57
2023-03-12T20:38:31.876Z,38.25
2023-03-12T20:41:38.797Z,37.78
2023-03-12T20:44:45.407Z,38.01
2023-03-12T20:47:51.392Z,37.75
2023-03-12T20:50:58.724Z,38.64
2023-03-12T20:54:07.426Z,39.18
2023-03-12T20:57:13.916Z,39.40
2023-03-12T21:00:21.677Z,38.73
2023-03-12T21:03:28.428Z,39.19
2023-03-12T21:06:34.213Z,38.89
2023-03-12T21:09:43.447Z,39.10
2023-03-12T21:12:49.457Z,39.13
2023-03-12T21:15:56.412Z,39.66
2023-03-12T21:19:02.793Z,38.84
2023-03-12T21:22:09.601Z,39.83
2023-03-12T21:25:18.979Z,39.62
2023-03-12T21:28:25.592Z,39.03
2023-03-12T21:31:31.522Z,37.93
2023-03-12T21:34:38.461Z,39.36
2023-03-12T21:37:44.664Z,39.08
2023-03-12T21:40:54.499Z,39.09
2023-03-12T21:44:05.242Z,38.76
2023-03-12T21:47:12.177Z,38.21
2023-03-12T21:50:18.149Z,39.87
2023-03-12T21:53:24.753Z,39.07
2023-03-12T21:56:33.263Z,38.96
2023-03-12T21:59:40.331Z,38.88
2023-03-12T22:02:51.310Z,38.88
2023-03-12T22:05:57.938Z,39.45
2023-03-12T22:09:03.796Z,39.43
2023-03-12T22:12:13.626Z,39.41
2023-03-12T22:15:19.541Z,38.72
2023-03-12T22:18:27.185Z,39.56
2023-03-12T22:21:33.897Z,39.72
2023-03-12T22:24:40.955Z,39.55
2023-03-12T22:27:49.665Z,39.45
2023-03-12T22:31:01.999Z,39.99
2023-03-12T22:34:07.987Z,40.11
2023-03-12T22:37:15.403Z,40.49
2023-03-12T22:40:21.457Z,41.11
2023-03-12T22:43:31.422Z,41.53
2023-03-12T22:46:37.418Z,41.62
2023-03-12T22:49:44.264Z,42.04
2023-03-12T22:52:51.017Z,42.60
2023-03-12T22:56:01.861Z,42.67
2023-03-12T22:59:10.290Z,43.02
2023-03-12T23:02:17.244Z,43.16
2023-03-12T23:05:23.546Z,43.68
2023-03-12T23:08:31.854Z,43.68
2023-03-12T23:11:38.008Z,44.11
2023-03-12T23:14:47.403Z,44.29
2023-03-12T23:17:53.078Z,44.91
2023-03-12T23:21:02.482Z,44.87
2023-03-12T23:24:09.406Z,45.52
2023-03-12T23:27:15.948Z,45.78
2023-03-12T23:30:24.586Z,46.14
2023-03-12T23:33:33.124Z,46.38
2023-03-12T23:36:39.188Z,46.58
2023-03-12T23:39:54.360Z,46.68
2023-03-12T23:43:00.846Z,47.01
2023-03-12T23:46:12.799Z,47.43
2023-03-12T23:49:18.686Z,47.65
2023-03-12T23:52:28.618Z,48.12
2023-03-12T23:55:34.457Z,48.02
2023-03-12T23:58:41.558Z,48.26
